sensor_id;sensor_type;location;lat;lon;timestamp;P1;durP1;ratioP1;P2;durP2;ratioP2
44248;SDS011;29923;48.718;9.272;2024-02-16T00:00:49;12.82;;;5.30;;
44248;SDS011;29923;48.718;9.272;2024-02-16T00:03:14;9.80;;;4.93;;
44248;SDS011;29923;48.718;9.272;2024-02-16T00:05:40;8.10;;;5.20;;
44248;SDS011;29923;48.718;9.272;2024-02-16T00:08:05;9.98;;;4.97;;
44248;SDS011;29923;48.718;9.272;2024-02-16T00:10:30;7.28;;;5.10;;
44248;SDS011;29923;48.718;9.272;2024-02-16T00:12:56;14.38;;;5.38;;
44248;SDS011;29923;48.718;9.272;2024-02-16T00:15:21;7.03;;;4.75;;
44248;SDS011;29923;48.718;9.272;2024-02-16T00:17:47;9.40;;;4.68;;
44248;SDS011;29923;48.718;9.272;2024-02-16T00:20:13;11.27;;;4.55;;
44248;SDS011;29923;48.718;9.272;2024-02-16T00:22:38;9.80;;;3.80;;
44248;SDS011;29923;48.718;9.272;2024-02-16T00:25:04;10.80;;;4.72;;
44248;SDS011;29923;48.718;9.272;2024-02-16T00:27:29;10.52;;;4.47;;
44248;SDS011;29923;48.718;9.272;2024-02-16T00:29:55;8.50;;;4.63;;
44248;SDS011;29923;48.718;9.272;2024-02-16T00:32:20;8.65;;;3.92;;
44248;SDS011;29923;48.718;9.272;2024-02-16T00:34:48;6.68;;;4.30;;
44248;SDS011;29923;48.718;9.272;2024-02-16T00:37:17;8.10;;;4.80;;
44248;SDS011;29923;48.718;9.272;2024-02-16T00:39:42;9.13;;;4.78;;
44248;SDS011;29923;48.718;9.272;2024-02-16T00:42:07;7.70;;;4.50;;
44248;SDS011;29923;48.718;9.272;2024-02-16T00:44:33;7.47;;;4.13;;
44248;SDS011;29923;48.718;9.272;2024-02-16T00:46:58;9.80;;;5.03;;
44248;SDS011;29923;48.718;9.272;2024-02-16T00:49:24;9.73;;;4.63;;
44248;SDS011;29923;48.718;9.272;2024-02-16T00:51:49;8.25;;;4.88;;
44248;SDS011;29923;48.718;9.272;2024-02-16T00:54:15;8.52;;;4.95;;
44248;SDS011;29923;48.718;9.272;2024-02-16T00:56:42;7.90;;;4.63;;
44248;SDS011;29923;48.718;9.272;2024-02-16T00:59:07;9.60;;;5.03;;
44248;SDS011;29923;48.718;9.272;2024-02-16T01:01:34;10.35;;;4.55;;
44248;SDS011;29923;48.718;9.272;2024-02-16T01:04:00;7.45;;;4.85;;
44248;SDS011;29923;48.718;9.272;2024-02-16T01:06:26;10.77;;;4.95;;
44248;SDS011;29923;48.718;9.272;2024-02-16T01:08:51;6.93;;;4.32;;
44248;SDS011;29923;48.718;9.272;2024-02-16T01:11:16;9.80;;;4.18;;
44248;SDS011;29923;48.718;9.272;2024-02-16T01:13:42;9.18;;;4.35;;
44248;SDS011;29923;48.718;9.272;2024-02-16T01:16:08;11.05;;;4.93;;
44248;SDS011;29923;48.718;9.272;2024-02-16T01:18:34;13.48;;;5.00;;
44248;SDS011;29923;48.718;9.272;2024-02-16T01:21:01;11.32;;;5.03;;
44248;SDS011;29923;48.718;9.272;2024-02-16T01:23:28;8.07;;;4.38;;
44248;SDS011;29923;48.718;9.272;2024-02-16T01:25:53;13.73;;;4.50;;
44248;SDS011;29923;48.718;9.272;2024-02-16T01:28:18;9.30;;;5.03;;
44248;SDS011;29923;48.718;9.272;2024-02-16T01:30:44;9.75;;;4.25;;
44248;SDS011;29923;48.718;9.272;2024-02-16T01:33:09;12.32;;;5.13;;
44248;SDS011;29923;48.718;9.272;2024-02-16T01:35:35;10.73;;;4.97;;
44248;SDS011;29923;48.718;9.272;2024-02-16T01:38:01;13.07;;;5.60;;
44248;SDS011;29923;48.718;9.272;2024-02-16T01:40:27;12.35;;;4.70;;
44248;SDS011;29923;48.718;9.272;2024-02-16T01:42:53;7.90;;;5.00;;
44248;SDS011;29923;48.718;9.272;2024-02-16T01:45:18;15.82;;;5.38;;
44248;SDS011;29923;48.718;9.272;2024-02-16T01:47:44;17.25;;;6.10;;
44248;SDS011;29923;48.718;9.272;2024-02-16T01:50:11;11.55;;;5.15;;
44248;SDS011;29923;48.718;9.272;2024-02-16T01:52:37;8.52;;;4.60;;
44248;SDS011;29923;48.718;9.272;2024-02-16T01:55:06;7.78;;;4.75;;
44248;SDS011;29923;48.718;9.272;2024-02-16T01:57:35;17.60;;;5.00;;
44248;SDS011;29923;48.718;9.272;2024-02-16T02:00:03;9.50;;;5.20;;
44248;SDS011;29923;48.718;9.272;2024-02-16T02:02:28;12.15;;;5.30;;
44248;SDS011;29923;48.718;9.272;2024-02-16T02:04:54;11.23;;;5.38;;
44248;SDS011;29923;48.718;9.272;2024-02-16T02:07:24;10.90;;;4.88;;
44248;SDS011;29923;48.718;9.272;2024-02-16T02:09:50;7.72;;;5.13;;
44248;SDS011;29923;48.718;9.272;2024-02-16T02:12:16;9.80;;;5.07;;
44248;SDS011;29923;48.718;9.272;2024-02-16T02:14:41;8.35;;;4.90;;
44248;SDS011;29923;48.718;9.272;2024-02-16T02:17:07;12.32;;;5.45;;
44248;SDS011;29923;48.718;9.272;2024-02-16T02:19:32;16.40;;;5.85;;
44248;SDS011;29923;48.718;9.272;2024-02-16T02:21:57;8.40;;;4.90;;
44248;SDS011;29923;48.718;9.272;2024-02-16T02:24:23;7.32;;;4.75;;
44248;SDS011;29923;48.718;9.272;2024-02-16T02:26:48;11.88;;;5.18;;
44248;SDS011;29923;48.718;9.272;2024-02-16T02:29:13;12.07;;;5.10;;
44248;SDS011;29923;48.718;9.272;2024-02-16T02:31:39;8.35;;;4.63;;
44248;SDS011;29923;48.718;9.272;2024-02-16T02:34:05;13.40;;;6.03;;
44248;SDS011;29923;48.718;9.272;2024-02-16T02:36:30;10.05;;;5.10;;
44248;SDS011;29923;48.718;9.272;2024-02-16T02:38:57;12.15;;;5.45;;
44248;SDS011;29923;48.718;9.272;2024-02-16T02:41:23;12.82;;;5.05;;
44248;SDS011;29923;48.718;9.272;2024-02-16T02:43:48;11.50;;;5.43;;
44248;SDS011;29923;48.718;9.272;2024-02-16T02:46:17;11.82;;;5.65;;
44248;SDS011;29923;48.718;9.272;2024-02-16T02:48:43;14.68;;;4.90;;
44248;SDS011;29923;48.718;9.272;2024-02-16T02:51:09;8.32;;;4.72;;
44248;SDS011;29923;48.718;9.272;2024-02-16T02:53:34;9.63;;;4.97;;
44248;SDS011;29923;48.718;9.272;2024-02-16T02:56:00;8.80;;;4.85;;
44248;SDS011;29923;48.718;9.272;2024-02-16T02:58:25;12.63;;;4.65;;
44248;SDS011;29923;48.718;9.272;2024-02-16T03:00:50;8.77;;;5.03;;
44248;SDS011;29923;48.718;9.272;2024-02-16T03:03:16;8.68;;;4.60;;
44248;SDS011;29923;48.718;9.272;2024-02-16T03:05:42;9.82;;;5.00;;
44248;SDS011;29923;48.718;9.272;2024-02-16T03:08:07;7.20;;;5.30;;
44248;SDS011;29923;48.718;9.272;2024-02-16T03:10:33;10.20;;;5.68;;
44248;SDS011;29923;48.718;9.272;2024-02-16T03:13:02;9.40;;;5.55;;
44248;SDS011;29923;48.718;9.272;2024-02-16T03:15:28;10.48;;;5.20;;
44248;SDS011;29923;48.718;9.272;2024-02-16T03:17:57;14.15;;;4.78;;
44248;SDS011;29923;48.718;9.272;2024-02-16T03:20:22;9.52;;;4.60;;
44248;SDS011;29923;48.718;9.272;2024-02-16T03:22:48;8.30;;;4.90;;
44248;SDS011;29923;48.718;9.272;2024-02-16T03:25:13;9.48;;;5.00;;
44248;SDS011;29923;48.718;9.272;2024-02-16T03:27:39;12.70;;;5.78;;
44248;SDS011;29923;48.718;9.272;2024-02-16T03:30:06;8.50;;;4.90;;
44248;SDS011;29923;48.718;9.272;2024-02-16T03:32:31;9.90;;;5.40;;
44248;SDS011;29923;48.718;9.272;2024-02-16T03:34:57;8.13;;;5.07;;
44248;SDS011;29923;48.718;9.272;2024-02-16T03:37:23;11.15;;;5.07;;
44248;SDS011;29923;48.718;9.272;2024-02-16T03:39:49;9.23;;;5.60;;
44248;SDS011;29923;48.718;9.272;2024-02-16T03:42:14;7.47;;;4.75;;
44248;SDS011;29923;48.718;9.272;2024-02-16T03:44:40;15.50;;;5.28;;
44248;SDS011;29923;48.718;9.272;2024-02-16T03:47:05;7.72;;;4.85;;
44248;SDS011;29923;48.718;9.272;2024-02-16T03:49:31;14.45;;;5.43;;
44248;SDS011;29923;48.718;9.272;2024-02-16T03:51:56;11.65;;;5.70;;
44248;SDS011;29923;48.718;9.272;2024-02-16T03:54:21;10.77;;;5.65;;
44248;SDS011;29923;48.718;9.272;2024-02-16T03:56:47;12.27;;;5.47;;
44248;SDS011;29923;48.718;9.272;2024-02-16T03:59:13;33.90;;;19.20;;
44248;SDS011;29923;48.718;9.272;2024-02-16T04:01:38;32.60;;;24.70;;
44248;SDS011;29923;48.718;9.272;2024-02-16T04:04:04;12.27;;;5.38;;
44248;SDS011;29923;48.718;9.272;2024-02-16T04:06:33;8.23;;;5.00;;
44248;SDS011;29923;48.718;9.272;2024-02-16T04:08:58;11.30;;;5.45;;
44248;SDS011;29923;48.718;9.272;2024-02-16T04:11:24;12.20;;;5.72;;
44248;SDS011;29923;48.718;9.272;2024-02-16T04:13:49;8.45;;;5.40;;
44248;SDS011;29923;48.718;9.272;2024-02-16T04:16:14;20.63;;;6.38;;
44248;SDS011;29923;48.718;9.272;2024-02-16T04:18:40;12.75;;;5.57;;
44248;SDS011;29923;48.718;9.272;2024-02-16T04:21:05;11.32;;;5.63;;
44248;SDS011;29923;48.718;9.272;2024-02-16T04:23:30;9.82;;;5.35;;
44248;SDS011;29923;48.718;9.272;2024-02-16T04:25:56;11.75;;;5.65;;
44248;SDS011;29923;48.718;9.272;2024-02-16T04:28:21;11.23;;;5.90;;
44248;SDS011;29923;48.718;9.272;2024-02-16T04:30:47;9.90;;;5.45;;
44248;SDS011;29923;48.718;9.272;2024-02-16T04:33:12;14.57;;;5.95;;
44248;SDS011;29923;48.718;9.272;2024-02-16T04:35:38;12.30;;;5.90;;
44248;SDS011;29923;48.718;9.272;2024-02-16T04:38:03;10.60;;;5.47;;
44248;SDS011;29923;48.718;9.272;2024-02-16T04:40:28;8.38;;;5.35;;
44248;SDS011;29923;48.718;9.272;2024-02-16T04:42:59;12.45;;;5.65;;
44248;SDS011;29923;48.718;9.272;2024-02-16T04:45:24;13.02;;;5.82;;
44248;SDS011;29923;48.718;9.272;2024-02-16T04:47:50;10.60;;;5.82;;
44248;SDS011;29923;48.718;9.272;2024-02-16T04:50:15;10.90;;;5.65;;
44248;SDS011;29923;48.718;9.272;2024-02-16T04:52:40;10.38;;;5.35;;
44248;SDS011;29923;48.718;9.272;2024-02-16T04:55:06;9.07;;;4.70;;
44248;SDS011;29923;48.718;9.272;2024-02-16T04:57:32;9.40;;;5.13;;
44248;SDS011;29923;48.718;9.272;2024-02-16T04:59:58;10.43;;;5.85;;
44248;SDS011;29923;48.718;9.272;2024-02-16T05:02:24;12.65;;;5.80;;
44248;SDS011;29923;48.718;9.272;2024-02-16T05:04:49;12.15;;;5.40;;
44248;SDS011;29923;48.718;9.272;2024-02-16T05:07:14;15.60;;;5.93;;
44248;SDS011;29923;48.718;9.272;2024-02-16T05:09:40;12.65;;;5.60;;
44248;SDS011;29923;48.718;9.272;2024-02-16T05:12:06;11.88;;;4.95;;
44248;SDS011;29923;48.718;9.272;2024-02-16T05:14:33;17.27;;;5.00;;
44248;SDS011;29923;48.718;9.272;2024-02-16T05:16:59;7.85;;;5.45;;
44248;SDS011;29923;48.718;9.272;2024-02-16T05:19:24;12.52;;;5.43;;
44248;SDS011;29923;48.718;9.272;2024-02-16T05:21:49;9.65;;;5.40;;
44248;SDS011;29923;48.718;9.272;2024-02-16T05:24:15;8.85;;;5.53;;
44248;SDS011;29923;48.718;9.272;2024-02-16T05:26:40;13.52;;;5.50;;
44248;SDS011;29923;48.718;9.272;2024-02-16T05:29:05;12.15;;;6.22;;
44248;SDS011;29923;48.718;9.272;2024-02-16T05:31:31;9.68;;;5.93;;
44248;SDS011;29923;48.718;9.272;2024-02-16T05:33:56;11.30;;;5.50;;
44248;SDS011;29923;48.718;9.272;2024-02-16T05:36:22;9.55;;;4.90;;
44248;SDS011;29923;48.718;9.272;2024-02-16T05:38:55;13.07;;;5.60;;
44248;SDS011;29923;48.718;9.272;2024-02-16T05:41:21;9.10;;;5.47;;
44248;SDS011;29923;48.718;9.272;2024-02-16T05:43:46;10.77;;;5.78;;
44248;SDS011;29923;48.718;9.272;2024-02-16T05:46:13;8.52;;;4.82;;
44248;SDS011;29923;48.718;9.272;2024-02-16T05:48:39;10.65;;;4.47;;
44248;SDS011;29923;48.718;9.272;2024-02-16T05:51:05;13.43;;;5.78;;
44248;SDS011;29923;48.718;9.272;2024-02-16T05:53:32;7.20;;;5.05;;
44248;SDS011;29923;48.718;9.272;2024-02-16T05:55:58;15.02;;;5.38;;
44248;SDS011;29923;48.718;9.272;2024-02-16T05:58:23;9.35;;;5.13;;
44248;SDS011;29923;48.718;9.272;2024-02-16T06:00:49;8.18;;;4.55;;
44248;SDS011;29923;48.718;9.272;2024-02-16T06:03:14;9.95;;;4.82;;
44248;SDS011;29923;48.718;9.272;2024-02-16T06:05:40;6.97;;;4.40;;
44248;SDS011;29923;48.718;9.272;2024-02-16T06:08:14;8.50;;;4.53;;
44248;SDS011;29923;48.718;9.272;2024-02-16T06:10:42;10.52;;;5.03;;
44248;SDS011;29923;48.718;9.272;2024-02-16T06:13:08;7.80;;;4.70;;
44248;SDS011;29923;48.718;9.272;2024-02-16T06:15:33;6.43;;;4.28;;
44248;SDS011;29923;48.718;9.272;2024-02-16T06:18:02;8.07;;;4.60;;
44248;SDS011;29923;48.718;9.272;2024-02-16T06:20:27;8.77;;;4.10;;
44248;SDS011;29923;48.718;9.272;2024-02-16T06:22:53;11.63;;;4.97;;
44248;SDS011;29923;48.718;9.272;2024-02-16T06:25:18;7.68;;;4.25;;
44248;SDS011;29923;48.718;9.272;2024-02-16T06:27:44;10.77;;;3.90;;
44248;SDS011;29923;48.718;9.272;2024-02-16T06:30:09;20.00;;;4.50;;
44248;SDS011;29923;48.718;9.272;2024-02-16T06:32:38;6.45;;;3.78;;
44248;SDS011;29923;48.718;9.272;2024-02-16T06:35:04;16.17;;;3.80;;
44248;SDS011;29923;48.718;9.272;2024-02-16T06:37:29;10.68;;;4.40;;
44248;SDS011;29923;48.718;9.272;2024-02-16T06:39:56;9.35;;;3.80;;
44248;SDS011;29923;48.718;9.272;2024-02-16T06:42:21;7.28;;;3.72;;
44248;SDS011;29923;48.718;9.272;2024-02-16T06:44:47;7.35;;;4.35;;
44248;SDS011;29923;48.718;9.272;2024-02-16T06:47:12;8.82;;;4.03;;
44248;SDS011;29923;48.718;9.272;2024-02-16T06:49:37;8.77;;;4.07;;
44248;SDS011;29923;48.718;9.272;2024-02-16T06:52:03;8.60;;;3.35;;
44248;SDS011;29923;48.718;9.272;2024-02-16T06:54:29;8.27;;;4.18;;
44248;SDS011;29923;48.718;9.272;2024-02-16T06:56:54;7.88;;;4.25;;
44248;SDS011;29923;48.718;9.272;2024-02-16T06:59:20;6.82;;;3.85;;
44248;SDS011;29923;48.718;9.272;2024-02-16T07:01:45;7.95;;;4.50;;
44248;SDS011;29923;48.718;9.272;2024-02-16T07:04:10;8.50;;;4.25;;
44248;SDS011;29923;48.718;9.272;2024-02-16T07:06:36;8.85;;;4.05;;
44248;SDS011;29923;48.718;9.272;2024-02-16T07:09:01;8.57;;;3.78;;
44248;SDS011;29923;48.718;9.272;2024-02-16T07:11:30;12.48;;;4.22;;
44248;SDS011;29923;48.718;9.272;2024-02-16T07:13:55;7.45;;;3.90;;
44248;SDS011;29923;48.718;9.272;2024-02-16T07:16:20;10.55;;;4.38;;
44248;SDS011;29923;48.718;9.272;2024-02-16T07:18:46;7.65;;;4.13;;
44248;SDS011;29923;48.718;9.272;2024-02-16T07:21:11;8.75;;;3.85;;
44248;SDS011;29923;48.718;9.272;2024-02-16T07:23:37;13.27;;;4.32;;
44248;SDS011;29923;48.718;9.272;2024-02-16T07:26:03;13.02;;;4.03;;
44248;SDS011;29923;48.718;9.272;2024-02-16T07:28:28;12.27;;;4.53;;
44248;SDS011;29923;48.718;9.272;2024-02-16T07:30:54;9.15;;;5.28;;
44248;SDS011;29923;48.718;9.272;2024-02-16T07:33:20;10.10;;;4.68;;
44248;SDS011;29923;48.718;9.272;2024-02-16T07:35:45;10.45;;;4.28;;
44248;SDS011;29923;48.718;9.272;2024-02-16T07:38:11;8.43;;;4.85;;
44248;SDS011;29923;48.718;9.272;2024-02-16T07:40:36;9.02;;;4.32;;
44248;SDS011;29923;48.718;9.272;2024-02-16T07:43:02;8.20;;;4.03;;
44248;SDS011;29923;48.718;9.272;2024-02-16T07:45:28;9.68;;;4.63;;
44248;SDS011;29923;48.718;9.272;2024-02-16T07:47:54;12.50;;;4.85;;
44248;SDS011;29923;48.718;9.272;2024-02-16T07:50:20;9.63;;;4.72;;
44248;SDS011;29923;48.718;9.272;2024-02-16T07:52:46;9.60;;;5.20;;
44248;SDS011;29923;48.718;9.272;2024-02-16T07:55:11;9.35;;;4.78;;
44248;SDS011;29923;48.718;9.272;2024-02-16T07:57:37;10.90;;;4.72;;
44248;SDS011;29923;48.718;9.272;2024-02-16T08:00:03;8.63;;;4.95;;
44248;SDS011;29923;48.718;9.272;2024-02-16T08:02:31;8.63;;;4.50;;
44248;SDS011;29923;48.718;9.272;2024-02-16T08:04:58;7.25;;;4.35;;
44248;SDS011;29923;48.718;9.272;2024-02-16T08:07:23;7.63;;;3.83;;
44248;SDS011;29923;48.718;9.272;2024-02-16T08:09:48;8.68;;;4.40;;
44248;SDS011;29923;48.718;9.272;2024-02-16T08:12:14;7.63;;;4.28;;
44248;SDS011;29923;48.718;9.272;2024-02-16T08:14:40;8.07;;;4.20;;
44248;SDS011;29923;48.718;9.272;2024-02-16T08:17:05;8.40;;;4.03;;
44248;SDS011;29923;48.718;9.272;2024-02-16T08:19:35;10.77;;;4.07;;
44248;SDS011;29923;48.718;9.272;2024-02-16T08:22:01;12.98;;;4.97;;
44248;SDS011;29923;48.718;9.272;2024-02-16T08:24:28;14.15;;;5.05;;
44248;SDS011;29923;48.718;9.272;2024-02-16T08:26:53;11.18;;;4.70;;
44248;SDS011;29923;48.718;9.272;2024-02-16T08:29:19;10.98;;;5.07;;
44248;SDS011;29923;48.718;9.272;2024-02-16T08:31:45;9.38;;;4.80;;
44248;SDS011;29923;48.718;9.272;2024-02-16T08:34:13;11.82;;;5.07;;
44248;SDS011;29923;48.718;9.272;2024-02-16T08:36:39;22.52;;;5.50;;
44248;SDS011;29923;48.718;9.272;2024-02-16T08:39:09;10.70;;;4.50;;
44248;SDS011;29923;48.718;9.272;2024-02-16T08:41:36;10.27;;;4.43;;
44248;SDS011;29923;48.718;9.272;2024-02-16T08:44:02;14.40;;;5.03;;
44248;SDS011;29923;48.718;9.272;2024-02-16T08:46:28;13.15;;;4.93;;
44248;SDS011;29923;48.718;9.272;2024-02-16T08:48:54;14.13;;;4.30;;
44248;SDS011;29923;48.718;9.272;2024-02-16T08:51:20;9.05;;;4.43;;
44248;SDS011;29923;48.718;9.272;2024-02-16T08:53:45;7.43;;;4.45;;
44248;SDS011;29923;48.718;9.272;2024-02-16T08:56:10;6.30;;;4.43;;
44248;SDS011;29923;48.718;9.272;2024-02-16T08:58:38;6.38;;;3.67;;
44248;SDS011;29923;48.718;9.272;2024-02-16T09:01:04;14.10;;;4.57;;
44248;SDS011;29923;48.718;9.272;2024-02-16T09:03:30;11.00;;;4.70;;
44248;SDS011;29923;48.718;9.272;2024-02-16T09:06:01;7.22;;;3.88;;
44248;SDS011;29923;48.718;9.272;2024-02-16T09:08:27;7.38;;;3.80;;
44248;SDS011;29923;48.718;9.272;2024-02-16T09:10:55;12.93;;;4.03;;
44248;SDS011;29923;48.718;9.272;2024-02-16T09:13:21;10.52;;;3.55;;
44248;SDS011;29923;48.718;9.272;2024-02-16T09:15:46;7.00;;;3.22;;
44248;SDS011;29923;48.718;9.272;2024-02-16T09:18:12;6.57;;;3.70;;
44248;SDS011;29923;48.718;9.272;2024-02-16T09:20:38;3.97;;;2.63;;
44248;SDS011;29923;48.718;9.272;2024-02-16T09:23:03;6.68;;;3.35;;
44248;SDS011;29923;48.718;9.272;2024-02-16T09:25:28;8.98;;;3.47;;
44248;SDS011;29923;48.718;9.272;2024-02-16T09:27:54;9.05;;;3.60;;
44248;SDS011;29923;48.718;9.272;2024-02-16T09:30:19;4.78;;;3.08;;
44248;SDS011;29923;48.718;9.272;2024-02-16T09:32:46;6.60;;;3.38;;
44248;SDS011;29923;48.718;9.272;2024-02-16T09:35:12;9.30;;;2.55;;
44248;SDS011;29923;48.718;9.272;2024-02-16T09:37:38;5.65;;;3.20;;
44248;SDS011;29923;48.718;9.272;2024-02-16T09:40:05;7.30;;;3.53;;
44248;SDS011;29923;48.718;9.272;2024-02-16T09:42:31;6.90;;;2.70;;
44248;SDS011;29923;48.718;9.272;2024-02-16T09:44:57;14.48;;;3.10;;
44248;SDS011;29923;48.718;9.272;2024-02-16T09:47:24;6.22;;;2.95;;
44248;SDS011;29923;48.718;9.272;2024-02-16T09:49:50;3.58;;;2.42;;
44248;SDS011;29923;48.718;9.272;2024-02-16T09:52:16;7.60;;;2.47;;
44248;SDS011;29923;48.718;9.272;2024-02-16T09:54:41;3.58;;;1.95;;
44248;SDS011;29923;48.718;9.272;2024-02-16T09:57:06;7.13;;;2.63;;
44248;SDS011;29923;48.718;9.272;2024-02-16T09:59:32;7.68;;;2.35;;
44248;SDS011;29923;48.718;9.272;2024-02-16T10:02:01;8.43;;;2.00;;
44248;SDS011;29923;48.718;9.272;2024-02-16T10:04:27;4.55;;;1.80;;
44248;SDS011;29923;48.718;9.272;2024-02-16T10:06:53;4.63;;;1.80;;
44248;SDS011;29923;48.718;9.272;2024-02-16T10:09:22;8.20;;;1.67;;
44248;SDS011;29923;48.718;9.272;2024-02-16T10:11:51;4.25;;;1.40;;
44248;SDS011;29923;48.718;9.272;2024-02-16T10:14:17;2.83;;;1.30;;
44248;SDS011;29923;48.718;9.272;2024-02-16T10:16:44;3.15;;;1.30;;
44248;SDS011;29923;48.718;9.272;2024-02-16T10:19:13;6.82;;;1.50;;
44248;SDS011;29923;48.718;9.272;2024-02-16T10:21:39;5.85;;;1.30;;
44248;SDS011;29923;48.718;9.272;2024-02-16T10:24:11;5.15;;;1.65;;
44248;SDS011;29923;48.718;9.272;2024-02-16T10:26:39;2.42;;;1.40;;
44248;SDS011;29923;48.718;9.272;2024-02-16T10:29:05;3.05;;;1.08;;
44248;SDS011;29923;48.718;9.272;2024-02-16T10:31:33;5.13;;;1.40;;
44248;SDS011;29923;48.718;9.272;2024-02-16T10:34:00;4.45;;;1.70;;
44248;SDS011;29923;48.718;9.272;2024-02-16T10:36:35;8.20;;;1.48;;
44248;SDS011;29923;48.718;9.272;2024-02-16T10:39:02;7.38;;;1.27;;
44248;SDS011;29923;48.718;9.272;2024-02-16T10:41:29;2.25;;;1.15;;
44248;SDS011;29923;48.718;9.272;2024-02-16T10:43:59;2.42;;;1.05;;
44248;SDS011;29923;48.718;9.272;2024-02-16T10:46:26;4.07;;;1.05;;
44248;SDS011;29923;48.718;9.272;2024-02-16T10:48:52;6.68;;;1.30;;
44248;SDS011;29923;48.718;9.272;2024-02-16T10:51:19;3.63;;;1.17;;
44248;SDS011;29923;48.718;9.272;2024-02-16T10:54:10;2.95;;;1.10;;
44248;SDS011;29923;48.718;9.272;2024-02-16T10:56:36;2.90;;;1.20;;
44248;SDS011;29923;48.718;9.272;2024-02-16T10:59:08;2.05;;;1.20;;
44248;SDS011;29923;48.718;9.272;2024-02-16T11:01:41;3.28;;;1.10;;
44248;SDS011;29923;48.718;9.272;2024-02-16T11:04:12;3.75;;;1.40;;
44248;SDS011;29923;48.718;9.272;2024-02-16T11:06:49;2.80;;;0.93;;
44248;SDS011;29923;48.718;9.272;2024-02-16T11:09:25;3.65;;;1.40;;
44248;SDS011;29923;48.718;9.272;2024-02-16T11:11:55;2.20;;;1.33;;
44248;SDS011;29923;48.718;9.272;2024-02-16T11:14:23;4.32;;;1.33;;
44248;SDS011;29923;48.718;9.272;2024-02-16T11:16:49;4.78;;;1.40;;
44248;SDS011;29923;48.718;9.272;2024-02-16T11:19:18;3.33;;;1.30;;
44248;SDS011;29923;48.718;9.272;2024-02-16T11:22:02;3.78;;;1.20;;
44248;SDS011;29923;48.718;9.272;2024-02-16T11:24:32;5.25;;;1.40;;
44248;SDS011;29923;48.718;9.272;2024-02-16T11:26:58;5.38;;;1.20;;
44248;SDS011;29923;48.718;9.272;2024-02-16T11:29:26;4.72;;;1.75;;
44248;SDS011;29923;48.718;9.272;2024-02-16T11:31:52;3.38;;;1.27;;
44248;SDS011;29923;48.718;9.272;2024-02-16T11:34:21;6.10;;;2.10;;
44248;SDS011;29923;48.718;9.272;2024-02-16T11:36:54;3.92;;;1.42;;
44248;SDS011;29923;48.718;9.272;2024-02-16T11:39:20;2.17;;;1.30;;
44248;SDS011;29923;48.718;9.272;2024-02-16T11:41:46;2.00;;;1.45;;
44248;SDS011;29923;48.718;9.272;2024-02-16T11:44:15;4.47;;;1.50;;
44248;SDS011;29923;48.718;9.272;2024-02-16T11:46:43;4.03;;;1.60;;
44248;SDS011;29923;48.718;9.272;2024-02-16T11:49:08;4.15;;;1.60;;
44248;SDS011;29923;48.718;9.272;2024-02-16T11:51:35;7.00;;;2.10;;
44248;SDS011;29923;48.718;9.272;2024-02-16T11:54:00;3.45;;;1.50;;
44248;SDS011;29923;48.718;9.272;2024-02-16T11:56:26;5.43;;;1.40;;
44248;SDS011;29923;48.718;9.272;2024-02-16T11:58:52;2.92;;;1.63;;
44248;SDS011;29923;48.718;9.272;2024-02-16T12:01:18;10.52;;;1.65;;
44248;SDS011;29923;48.718;9.272;2024-02-16T12:03:43;4.50;;;1.45;;
44248;SDS011;29923;48.718;9.272;2024-02-16T12:06:08;9.38;;;2.13;;
44248;SDS011;29923;48.718;9.272;2024-02-16T12:08:34;2.78;;;1.42;;
44248;SDS011;29923;48.718;9.272;2024-02-16T12:11:00;2.65;;;1.38;;
44248;SDS011;29923;48.718;9.272;2024-02-16T12:13:26;4.05;;;1.88;;
44248;SDS011;29923;48.718;9.272;2024-02-16T12:15:52;8.25;;;1.50;;
44248;SDS011;29923;48.718;9.272;2024-02-16T12:18:21;4.93;;;1.65;;
44248;SDS011;29923;48.718;9.272;2024-02-16T12:20:59;5.53;;;1.63;;
44248;SDS011;29923;48.718;9.272;2024-02-16T12:23:25;7.57;;;1.80;;
44248;SDS011;29923;48.718;9.272;2024-02-16T12:25:50;9.30;;;1.35;;
44248;SDS011;29923;48.718;9.272;2024-02-16T12:28:16;6.60;;;1.95;;
44248;SDS011;29923;48.718;9.272;2024-02-16T12:30:41;10.05;;;1.95;;
44248;SDS011;29923;48.718;9.272;2024-02-16T12:33:07;8.18;;;2.00;;
44248;SDS011;29923;48.718;9.272;2024-02-16T12:35:32;6.15;;;2.03;;
44248;SDS011;29923;48.718;9.272;2024-02-16T12:37:59;8.60;;;2.47;;
44248;SDS011;29923;48.718;9.272;2024-02-16T12:40:25;3.67;;;1.63;;
44248;SDS011;29923;48.718;9.272;2024-02-16T12:42:50;7.40;;;1.80;;
44248;SDS011;29923;48.718;9.272;2024-02-16T12:45:15;5.70;;;1.65;;
44248;SDS011;29923;48.718;9.272;2024-02-16T12:47:41;4.68;;;1.65;;
44248;SDS011;29923;48.718;9.272;2024-02-16T12:50:07;5.28;;;1.77;;
44248;SDS011;29923;48.718;9.272;2024-02-16T12:52:32;5.28;;;1.88;;
44248;SDS011;29923;48.718;9.272;2024-02-16T12:54:59;3.72;;;1.58;;
44248;SDS011;29923;48.718;9.272;2024-02-16T12:57:24;8.32;;;1.70;;
44248;SDS011;29923;48.718;9.272;2024-02-16T12:59:49;3.55;;;1.60;;
44248;SDS011;29923;48.718;9.272;2024-02-16T13:02:15;3.97;;;1.40;;
44248;SDS011;29923;48.718;9.272;2024-02-16T13:04:40;13.40;;;2.33;;
44248;SDS011;29923;48.718;9.272;2024-02-16T13:07:06;4.90;;;1.70;;
44248;SDS011;29923;48.718;9.272;2024-02-16T13:09:31;4.63;;;1.83;;
44248;SDS011;29923;48.718;9.272;2024-02-16T13:11:57;6.45;;;1.70;;
44248;SDS011;29923;48.718;9.272;2024-02-16T13:14:22;9.23;;;2.13;;
44248;SDS011;29923;48.718;9.272;2024-02-16T13:16:48;5.82;;;1.65;;
44248;SDS011;29923;48.718;9.272;2024-02-16T13:19:16;6.28;;;1.75;;
44248;SDS011;29923;48.718;9.272;2024-02-16T13:21:43;5.13;;;1.80;;
44248;SDS011;29923;48.718;9.272;2024-02-16T13:24:11;6.60;;;1.73;;
44248;SDS011;29923;48.718;9.272;2024-02-16T13:26:36;3.15;;;1.58;;
44248;SDS011;29923;48.718;9.272;2024-02-16T13:29:02;4.63;;;1.90;;
44248;SDS011;29923;48.718;9.272;2024-02-16T13:31:27;3.47;;;1.35;;
44248;SDS011;29923;48.718;9.272;2024-02-16T13:33:53;4.68;;;1.70;;
44248;SDS011;29923;48.718;9.272;2024-02-16T13:36:19;6.05;;;1.92;;
44248;SDS011;29923;48.718;9.272;2024-02-16T13:38:45;5.22;;;1.60;;
44248;SDS011;29923;48.718;9.272;2024-02-16T13:41:10;6.28;;;2.00;;
44248;SDS011;29923;48.718;9.272;2024-02-16T13:43:35;5.22;;;2.15;;
44248;SDS011;29923;48.718;9.272;2024-02-16T13:46:01;9.75;;;2.10;;
44248;SDS011;29923;48.718;9.272;2024-02-16T13:48:26;6.22;;;1.83;;
44248;SDS011;29923;48.718;9.272;2024-02-16T13:50:53;8.48;;;2.00;;
44248;SDS011;29923;48.718;9.272;2024-02-16T13:53:19;6.35;;;1.85;;
44248;SDS011;29923;48.718;9.272;2024-02-16T13:55:44;6.45;;;2.70;;
44248;SDS011;29923;48.718;9.272;2024-02-16T13:58:10;7.70;;;2.75;;
44248;SDS011;29923;48.718;9.272;2024-02-16T14:00:36;10.15;;;2.72;;
44248;SDS011;29923;48.718;9.272;2024-02-16T14:03:02;16.17;;;2.72;;
44248;SDS011;29923;48.718;9.272;2024-02-16T14:05:29;10.30;;;3.17;;
44248;SDS011;29923;48.718;9.272;2024-02-16T14:07:54;9.25;;;2.80;;
44248;SDS011;29923;48.718;9.272;2024-02-16T14:10:20;8.68;;;2.78;;
44248;SDS011;29923;48.718;9.272;2024-02-16T14:12:47;7.18;;;2.72;;
44248;SDS011;29923;48.718;9.272;2024-02-16T14:15:12;11.88;;;3.63;;
44248;SDS011;29923;48.718;9.272;2024-02-16T14:17:41;7.72;;;3.03;;
44248;SDS011;29923;48.718;9.272;2024-02-16T14:20:07;7.65;;;2.83;;
44248;SDS011;29923;48.718;9.272;2024-02-16T14:22:33;14.95;;;3.00;;
44248;SDS011;29923;48.718;9.272;2024-02-16T14:24:59;9.88;;;3.20;;
44248;SDS011;29923;48.718;9.272;2024-02-16T14:27:24;8.80;;;3.65;;
44248;SDS011;29923;48.718;9.272;2024-02-16T14:29:49;9.05;;;3.55;;
44248;SDS011;29923;48.718;9.272;2024-02-16T14:32:15;5.95;;;2.65;;
44248;SDS011;29923;48.718;9.272;2024-02-16T14:34:40;13.68;;;2.92;;
44248;SDS011;29923;48.718;9.272;2024-02-16T14:37:07;9.25;;;3.33;;